createdAt,value
2018-03-24T00:01:14.545Z,17.20
2018-03-24T00:03:42.065Z,21.83
2018-03-24T00:06:09.586Z,21.40
2018-03-24T00:08:37.906Z,19.80
2018-03-24T00:11:05.767Z,21.50
2018-03-24T00:13:35.440Z,26.90
2018-03-24T00:16:04.702Z,20.80
2018-03-24T00:18:35.806Z,19.27
2018-03-24T00:21:05.871Z,20.00
2018-03-24T00:23:36.012Z,20.60
2018-03-24T00:26:04.886Z,21.73
2018-03-24T00:28:36.965Z,22.03
2018-03-24T00:31:05.414Z,18.43
2018-03-24T00:33:37.502Z,21.50
2018-03-24T00:36:06.312Z,22.80
2018-03-24T00:38:36.199Z,18.87
2018-03-24T00:41:06.481Z,18.53
2018-03-24T00:43:36.508Z,19.30
2018-03-24T00:46:05.821Z,18.83
2018-03-24T00:48:37.093Z,26.27
2018-03-24T00:51:06.580Z,19.53
2018-03-24T00:53:37.807Z,22.10
2018-03-24T00:56:07.129Z,21.73
2018-03-24T00:58:35.932Z,23.97
2018-03-24T01:01:05.230Z,21.30
2018-03-24T01:03:37.868Z,21.97
2018-03-24T01:06:07.944Z,21.23
2018-03-24T01:08:37.883Z,25.40
2018-03-24T01:11:08.003Z,21.23
2018-03-24T01:13:37.926Z,20.90
2018-03-24T01:16:07.669Z,21.37
2018-03-24T01:18:39.449Z,24.80
2018-03-24T01:21:07.700Z,20.87
2018-03-24T01:23:37.625Z,20.70
2018-03-24T01:26:07.912Z,22.83
2018-03-24T01:28:38.337Z,22.17
2018-03-24T01:31:08.517Z,20.73
2018-03-24T01:33:47.061Z,20.73
2018-03-24T01:36:14.673Z,20.97
2018-03-24T01:38:42.949Z,19.60
2018-03-24T01:41:11.268Z,20.83
2018-03-24T01:43:38.831Z,19.20
2018-03-24T01:46:07.922Z,18.97
2018-03-24T01:48:38.002Z,23.10
2018-03-24T01:51:07.685Z,24.23
2018-03-24T01:53:47.961Z,21.33
2018-03-24T01:56:16.346Z,20.73
2018-03-24T01:58:44.633Z,27.03
2018-03-24T02:01:15.804Z,22.77
2018-03-24T02:03:43.421Z,21.07
2018-03-24T02:06:10.937Z,22.13
2018-03-24T02:08:40.043Z,19.90
2018-03-24T02:11:09.545Z,19.17
2018-03-24T02:13:48.965Z,19.67
2018-03-24T02:16:16.499Z,18.17
2018-03-24T02:18:44.757Z,18.50
2018-03-24T02:21:14.612Z,19.43
2018-03-24T02:23:42.869Z,18.87
2018-03-24T02:26:10.386Z,21.77
2018-03-24T02:28:38.229Z,19.80
2018-03-24T02:31:07.307Z,18.73
2018-03-24T02:33:35.898Z,19.33
2018-03-24T02:36:06.020Z,20.47
2018-03-24T02:38:35.410Z,23.10
2018-03-24T02:41:06.100Z,20.57
2018-03-24T02:43:35.744Z,17.60
2018-03-24T02:46:05.815Z,20.67
2018-03-24T02:48:36.803Z,18.97
2018-03-24T02:51:08.294Z,21.80
2018-03-24T02:53:38.290Z,22.97
2018-03-24T02:56:08.079Z,21.30
2018-03-24T02:58:39.165Z,23.57
2018-03-24T03:01:08.128Z,20.17
2018-03-24T03:03:39.190Z,19.27
2018-03-24T03:06:08.382Z,21.67
2018-03-24T03:08:37.721Z,23.90
2018-03-24T03:11:07.989Z,32.23
2018-03-24T03:13:38.094Z,19.37
2018-03-24T03:16:09.008Z,23.73
2018-03-24T03:18:39.139Z,20.93
2018-03-24T03:21:09.618Z,20.57
2018-03-24T03:23:48.217Z,21.77
2018-03-24T03:26:15.709Z,21.10
2018-03-24T03:28:43.308Z,22.83
2018-03-24T03:31:14.057Z,24.70
2018-03-24T03:33:42.350Z,21.90
2018-03-24T03:36:10.637Z,26.73
2018-03-24T03:38:40.257Z,24.33
2018-03-24T03:41:10.151Z,25.20
2018-03-24T03:43:49.217Z,23.60
2018-03-24T03:46:16.745Z,25.37
2018-03-24T03:48:44.277Z,26.90
2018-03-24T03:51:12.669Z,23.77
2018-03-24T03:53:40.934Z,26.97
2018-03-24T03:56:10.257Z,29.83
2018-03-24T03:58:39.889Z,28.87
2018-03-24T04:01:10.104Z,27.57
2018-03-24T04:03:39.256Z,27.00
2018-03-24T04:06:09.310Z,27.60
2018-03-24T04:08:39.777Z,30.73
2018-03-24T04:11:08.794Z,27.83
2018-03-24T04:13:39.050Z,34.37
2018-03-24T04:16:19.241Z,28.37
2018-03-24T04:18:46.862Z,28.33
2018-03-24T04:21:14.402Z,29.93
2018-03-24T04:23:41.902Z,29.23
2018-03-24T04:26:10.366Z,31.00
2018-03-24T04:28:40.166Z,30.47
2018-03-24T04:31:08.815Z,31.57
2018-03-24T04:33:39.889Z,29.90
2018-03-24T04:36:09.442Z,32.47
2018-03-24T04:38:39.449Z,36.73
2018-03-24T04:41:09.911Z,31.10
2018-03-24T04:43:42.993Z,32.97
2018-03-24T04:46:10.574Z,29.70
2018-03-24T04:48:39.344Z,28.30
2018-03-24T04:51:10.999Z,29.00
2018-03-24T04:53:40.045Z,30.53
2018-03-24T04:56:10.797Z,35.13
2018-03-24T04:58:39.907Z,29.57
2018-03-24T05:01:09.258Z,34.40
2018-03-24T05:03:39.498Z,34.20
2018-03-24T05:06:09.558Z,33.70
2018-03-24T05:08:38.129Z,34.50
2018-03-24T05:11:07.725Z,35.93
2018-03-24T05:13:40.409Z,31.57
2018-03-24T05:16:09.474Z,32.60
2018-03-24T05:18:40.335Z,29.67
2018-03-24T05:21:09.343Z,39.77
2018-03-24T05:23:38.178Z,30.10
2018-03-24T05:26:08.702Z,36.23
2018-03-24T05:28:47.530Z,40.00
2018-03-24T05:31:22.699Z,38.67
2018-03-24T05:33:50.327Z,40.00
2018-03-24T05:36:17.894Z,37.87
2018-03-24T05:38:46.169Z,36.20
2018-03-24T05:41:14.473Z,39.17
2018-03-24T05:43:42.742Z,39.90
2018-03-24T05:46:10.266Z,40.00
2018-03-24T05:48:39.514Z,37.30
2018-03-24T05:51:08.600Z,41.17
2018-03-24T05:53:38.254Z,42.40
2018-03-24T05:56:08.095Z,43.80
2018-03-24T05:58:39.421Z,42.23
2018-03-24T06:01:09.282Z,40.10
2018-03-24T06:03:39.321Z,39.03
2018-03-24T06:06:08.322Z,39.57
2018-03-24T06:08:38.483Z,36.17
2018-03-24T06:11:17.376Z,36.37
2018-03-24T06:13:44.834Z,34.23
2018-03-24T06:16:12.354Z,39.13
2018-03-24T06:18:39.856Z,31.87
2018-03-24T06:21:08.533Z,38.00
2018-03-24T06:23:36.513Z,34.07
2018-03-24T06:26:06.863Z,39.23
2018-03-24T06:28:45.366Z,36.37
2018-03-24T06:31:15.393Z,32.70
2018-03-24T06:33:42.898Z,33.97
2018-03-24T06:36:10.398Z,36.83
2018-03-24T06:38:39.047Z,32.67
2018-03-24T06:41:08.009Z,29.30
2018-03-24T06:43:37.221Z,35.10
2018-03-24T06:46:06.329Z,33.77
2018-03-24T06:48:34.691Z,31.63
2018-03-24T06:51:13.478Z,37.47
2018-03-24T06:53:41.757Z,37.43
2018-03-24T06:56:10.025Z,32.93
2018-03-24T06:58:38.056Z,31.63
2018-03-24T07:01:05.897Z,34.73
2018-03-24T07:03:35.031Z,38.20
2018-03-24T07:06:04.414Z,32.83
2018-03-24T07:08:34.223Z,30.30
2018-03-24T07:11:04.349Z,32.00
2018-03-24T07:13:43.199Z,30.70
2018-03-24T07:16:10.723Z,31.70
2018-03-24T07:18:38.466Z,33.80
2018-03-24T07:21:07.001Z,31.73
2018-03-24T07:23:36.240Z,31.27
2018-03-24T07:26:04.265Z,33.07
2018-03-24T07:28:33.808Z,36.57
2018-03-24T07:31:03.051Z,32.40
2018-03-24T07:33:32.231Z,30.90
2018-03-24T07:36:00.383Z,32.80
2018-03-24T07:38:28.854Z,35.17
2018-03-24T07:40:56.502Z,34.73
2018-03-24T07:43:24.018Z,31.13
2018-03-24T07:45:51.690Z,32.97
2018-03-24T07:48:20.123Z,31.47
2018-03-24T07:50:47.666Z,36.97
2018-03-24T07:53:15.170Z,34.37
2018-03-24T07:55:42.694Z,29.10
2018-03-24T07:58:10.202Z,25.13
2018-03-24T08:00:38.601Z,25.57
2018-03-24T08:03:06.205Z,24.37
2018-03-24T08:05:33.787Z,26.73
2018-03-24T08:08:01.611Z,25.73
2018-03-24T08:10:29.215Z,23.23
2018-03-24T08:12:56.842Z,22.67
2018-03-24T08:15:25.122Z,21.13
2018-03-24T08:17:52.717Z,21.50
2018-03-24T08:20:21.058Z,20.63
2018-03-24T08:22:48.670Z,21.67
2018-03-24T08:25:16.950Z,21.03
2018-03-24T08:27:45.368Z,21.33
2018-03-24T08:30:13.633Z,20.87
2018-03-24T08:32:41.155Z,21.20
2018-03-24T08:35:08.665Z,20.40
2018-03-24T08:37:36.195Z,20.83
2018-03-24T08:40:03.719Z,22.00
2018-03-24T08:42:31.271Z,20.80
2018-03-24T08:44:58.818Z,22.40
2018-03-24T08:47:26.354Z,22.50
2018-03-24T08:49:53.875Z,20.90
2018-03-24T08:52:21.394Z,21.03
2018-03-24T08:54:49.716Z,21.50
2018-03-24T08:57:18.125Z,23.63
2018-03-24T08:59:45.671Z,22.67
2018-03-24T09:02:13.210Z,21.87
2018-03-24T09:04:41.502Z,22.13
2018-03-24T09:07:09.806Z,22.20
2018-03-24T09:09:38.089Z,20.33
2018-03-24T09:12:06.353Z,24.17
2018-03-24T09:14:33.931Z,21.43
2018-03-24T09:17:01.514Z,20.90
2018-03-24T09:19:29.114Z,21.03
2018-03-24T09:21:56.618Z,20.50
2018-03-24T09:24:24.157Z,20.60
2018-03-24T09:26:51.662Z,20.53
2018-03-24T09:29:19.222Z,17.70
2018-03-24T09:31:46.768Z,18.00
2018-03-24T09:34:14.290Z,18.60
2018-03-24T09:36:41.792Z,18.97
2018-03-24T09:39:10.081Z,22.07
2018-03-24T09:41:38.354Z,24.10
2018-03-24T09:44:06.639Z,25.80
2018-03-24T09:46:34.154Z,29.67
2018-03-24T09:49:01.673Z,26.30
2018-03-24T09:51:29.327Z,29.53
2018-03-24T09:53:57.350Z,27.27
2018-03-24T09:56:24.898Z,33.10
2018-03-24T09:58:52.429Z,31.20
2018-03-24T10:01:20.080Z,33.03
2018-03-24T10:03:47.681Z,36.10
2018-03-24T10:06:15.239Z,35.43
2018-03-24T10:08:42.739Z,27.47
2018-03-24T10:11:10.286Z,38.50
2018-03-24T10:13:37.839Z,29.93
2018-03-24T10:16:05.483Z,28.30
2018-03-24T10:18:33.894Z,30.67
2018-03-24T10:24:22.917Z,27.17
2018-03-24T10:26:51.219Z,25.60
2018-03-24T10:29:18.735Z,24.20
2018-03-24T10:31:46.269Z,28.00
2018-03-24T10:34:13.769Z,24.47
2018-03-24T10:36:41.266Z,26.07
2018-03-24T10:39:08.824Z,25.80
2018-03-24T10:41:36.442Z,23.70
2018-03-24T10:44:03.993Z,27.37
2018-03-24T10:46:32.278Z,22.30
2018-03-24T10:49:00.582Z,20.20
2018-03-24T10:51:28.850Z,21.67
2018-03-24T10:53:56.373Z,16.60
2018-03-24T10:56:23.881Z,19.47
2018-03-24T10:58:51.425Z,20.37
2018-03-24T11:01:27.801Z,23.43
2018-03-24T11:03:55.318Z,16.70
2018-03-24T11:06:22.830Z,19.83
2018-03-24T11:08:50.392Z,20.97
2018-03-24T11:11:17.954Z,21.70
2018-03-24T11:13:46.225Z,23.83
2018-03-24T11:16:13.731Z,20.03
2018-03-24T11:18:41.279Z,18.40
2018-03-24T11:21:09.583Z,20.57
2018-03-24T11:23:37.117Z,16.87
2018-03-24T11:26:04.613Z,18.10
2018-03-24T11:28:32.878Z,22.87
2018-03-24T11:31:00.398Z,18.67
2018-03-24T11:33:27.955Z,18.73
2018-03-24T11:35:55.512Z,16.50
2018-03-24T11:38:23.896Z,16.97
2018-03-24T11:40:51.738Z,16.20
2018-03-24T11:43:20.102Z,17.40
2018-03-24T11:45:47.850Z,21.30
2018-03-24T11:48:16.116Z,19.57
2018-03-24T11:50:43.802Z,21.73
2018-03-24T11:53:12.043Z,21.80
2018-03-24T11:55:39.581Z,20.10
2018-03-24T11:58:07.112Z,19.57
2018-03-24T12:00:34.642Z,19.97
2018-03-24T12:03:02.189Z,18.40
2018-03-24T12:05:29.714Z,19.93
2018-03-24T12:07:57.295Z,19.17
2018-03-24T12:10:35.422Z,19.30
2018-03-24T12:13:02.937Z,19.90
2018-03-24T12:15:31.243Z,19.10
2018-03-24T12:17:59.168Z,19.23
2018-03-24T12:20:26.798Z,17.50
2018-03-24T12:22:54.743Z,19.93
2018-03-24T12:25:24.406Z,19.10
2018-03-24T12:27:54.549Z,25.83
2018-03-24T12:30:23.262Z,18.97
2018-03-24T12:32:53.250Z,20.20
2018-03-24T12:35:22.385Z,18.07
2018-03-24T12:37:52.415Z,15.80
2018-03-24T12:40:23.889Z,18.20
2018-03-24T12:42:54.460Z,19.27
2018-03-24T12:45:25.805Z,16.97
2018-03-24T12:47:54.157Z,22.60
2018-03-24T12:50:23.286Z,15.93
2018-03-24T12:52:53.453Z,17.87
2018-03-24T12:55:22.916Z,17.47
2018-03-24T12:57:51.910Z,16.03
2018-03-24T13:00:20.835Z,17.37
2018-03-24T13:02:50.712Z,18.20
2018-03-24T13:05:20.754Z,14.87
2018-03-24T13:07:52.656Z,15.30
2018-03-24T13:10:22.941Z,13.63
2018-03-24T13:12:54.289Z,11.83
2018-03-24T13:15:25.113Z,11.87
2018-03-24T13:17:54.483Z,11.37
2018-03-24T13:20:22.101Z,14.63
2018-03-24T13:22:49.613Z,14.17
2018-03-24T13:25:17.134Z,14.37
2018-03-24T13:27:44.651Z,13.37
2018-03-24T13:30:13.090Z,13.60
2018-03-24T13:32:41.260Z,14.80
2018-03-24T13:35:11.211Z,14.53
2018-03-24T13:37:39.946Z,13.60
2018-03-24T13:40:18.362Z,13.97
2018-03-24T13:42:45.881Z,16.37
2018-03-24T13:45:13.395Z,19.40
2018-03-24T13:47:41.746Z,15.80
2018-03-24T13:50:11.414Z,16.73
2018-03-24T13:52:40.372Z,19.90
2018-03-24T13:55:10.789Z,14.43
2018-03-24T13:57:40.219Z,16.53
2018-03-24T14:00:10.373Z,18.70
2018-03-24T14:02:42.730Z,15.73
2018-03-24T14:05:13.925Z,15.07
2018-03-24T14:07:43.717Z,10.87
2018-03-24T14:10:13.817Z,12.97
2018-03-24T14:12:43.523Z,14.80
2018-03-24T14:15:14.062Z,16.33
2018-03-24T14:17:43.066Z,17.30
2018-03-24T14:20:12.154Z,14.50
2018-03-24T14:22:42.066Z,15.63
2018-03-24T14:25:11.184Z,15.10
2018-03-24T14:27:41.342Z,13.10
2018-03-24T14:30:10.363Z,11.77
2018-03-24T14:32:39.087Z,14.70
2018-03-24T14:35:08.634Z,12.57
2018-03-24T14:37:38.814Z,13.93
2018-03-24T14:40:07.574Z,14.10
2018-03-24T14:42:38.353Z,12.73
2018-03-24T14:45:08.169Z,11.03
2018-03-24T14:47:39.127Z,15.70
2018-03-24T14:50:19.180Z,12.80
2018-03-24T14:52:47.447Z,13.70
2018-03-24T14:55:15.041Z,16.30
2018-03-24T14:57:43.308Z,15.20
2018-03-24T15:00:13.152Z,15.47
2018-03-24T15:02:42.159Z,13.30
2018-03-24T15:05:12.285Z,13.30
2018-03-24T15:07:42.136Z,14.27
2018-03-24T15:10:13.646Z,13.20
2018-03-24T15:12:44.322Z,12.83
2018-03-24T15:15:13.896Z,12.87
2018-03-24T15:17:44.842Z,12.63
2018-03-24T15:20:14.182Z,14.70
2018-03-24T15:22:44.154Z,14.83
2018-03-24T15:25:17.811Z,13.70
2018-03-24T15:27:45.359Z,16.60
2018-03-24T15:30:25.030Z,13.57
2018-03-24T15:32:52.583Z,15.00
2018-03-24T15:35:37.796Z,17.13
2018-03-24T15:38:14.797Z,12.47
2018-03-24T15:40:44.182Z,12.40
2018-03-24T15:43:14.745Z,13.40
2018-03-24T15:45:46.792Z,13.90
2018-03-24T15:48:15.281Z,12.90
2018-03-24T15:50:44.850Z,15.23
2018-03-24T15:53:15.026Z,13.33
2018-03-24T15:55:44.739Z,14.20
2018-03-24T15:58:14.294Z,13.50
2018-03-24T16:00:43.855Z,14.17
2018-03-24T16:03:15.764Z,14.17
2018-03-24T16:05:44.310Z,13.80
2018-03-24T16:08:13.358Z,14.67
2018-03-24T16:10:42.452Z,12.30
2018-03-24T16:13:14.307Z,14.93
2018-03-24T16:15:44.232Z,11.77
2018-03-24T16:18:14.172Z,14.57
2018-03-24T16:20:44.484Z,15.00
2018-03-24T16:23:14.177Z,13.80
2018-03-24T16:25:53.422Z,14.40
2018-03-24T16:28:20.918Z,14.57
2018-03-24T16:31:01.759Z,13.70
2018-03-24T16:33:42.984Z,17.37
2018-03-24T16:36:15.603Z,16.27
2018-03-24T16:38:45.678Z,14.17
2018-03-24T16:41:13.270Z,13.50
2018-03-24T16:43:48.345Z,15.83
2018-03-24T16:46:16.625Z,12.50
2018-03-24T16:48:44.126Z,16.57
2018-03-24T16:51:13.363Z,12.63
2018-03-24T16:53:44.199Z,14.40
2018-03-24T16:56:12.727Z,13.40
2018-03-24T16:58:41.842Z,15.30
2018-03-24T17:01:10.907Z,12.73
2018-03-24T17:03:40.532Z,14.00
2018-03-24T17:06:19.082Z,13.23
2018-03-24T17:08:46.581Z,12.63
2018-03-24T17:11:14.103Z,14.60
2018-03-24T17:13:53.582Z,13.73
2018-03-24T17:16:21.101Z,15.00
2018-03-24T17:18:49.365Z,14.10
2018-03-24T17:21:16.870Z,15.73
2018-03-24T17:23:45.150Z,13.27
2018-03-24T17:26:13.476Z,13.60
2018-03-24T17:28:42.518Z,13.90
2018-03-24T17:31:11.517Z,17.23
2018-03-24T17:33:40.140Z,15.27
2018-03-24T17:36:08.759Z,13.50
2018-03-24T17:38:38.699Z,18.43
2018-03-24T17:41:08.644Z,13.63
2018-03-24T17:43:38.120Z,14.33
2018-03-24T17:46:16.821Z,14.20
2018-03-24T17:48:44.334Z,16.67
2018-03-24T17:51:12.598Z,18.53
2018-03-24T17:53:41.137Z,17.30
2018-03-24T17:56:18.740Z,16.40
2018-03-24T17:58:46.261Z,14.50
2018-03-24T18:01:13.757Z,13.30
2018-03-24T18:03:42.125Z,17.13
2018-03-24T18:06:10.866Z,17.37
2018-03-24T18:08:40.405Z,18.53
2018-03-24T18:11:10.519Z,16.13
2018-03-24T18:13:40.860Z,17.27
2018-03-24T18:16:11.134Z,18.30
2018-03-24T18:18:49.717Z,15.27
2018-03-24T18:21:17.219Z,16.93
2018-03-24T18:23:44.753Z,19.10
2018-03-24T18:26:13.045Z,20.67
2018-03-24T18:28:42.518Z,19.60
2018-03-24T18:31:11.613Z,24.13
2018-03-24T18:33:39.828Z,19.87
2018-03-24T18:36:08.490Z,18.80
2018-03-24T18:38:39.960Z,20.77
2018-03-24T18:41:19.030Z,21.23
2018-03-24T18:43:46.538Z,21.17
2018-03-24T18:46:14.827Z,20.20
2018-03-24T18:48:43.044Z,20.63
2018-03-24T18:51:11.925Z,20.40
2018-03-24T18:53:40.746Z,18.60
2018-03-24T18:56:09.971Z,20.80
2018-03-24T18:58:38.861Z,19.23
2018-03-24T19:01:09.606Z,21.80
2018-03-24T19:03:39.158Z,23.00
2018-03-24T19:06:08.025Z,20.20
2018-03-24T19:08:37.881Z,21.27
2018-03-24T19:11:09.148Z,24.67
2018-03-24T19:13:38.931Z,29.13
2018-03-24T19:16:08.464Z,22.77
2018-03-24T19:18:38.396Z,20.60
2018-03-24T19:21:08.584Z,24.43
2018-03-24T19:23:38.098Z,21.90
2018-03-24T19:26:07.837Z,25.00
2018-03-24T19:28:43.839Z,21.67
2018-03-24T19:31:12.514Z,20.83
2018-03-24T19:33:50.967Z,17.57
2018-03-24T19:36:18.470Z,21.27
2018-03-24T19:38:45.982Z,23.30
2018-03-24T19:41:14.242Z,18.10
2018-03-24T19:43:43.966Z,21.77
2018-03-24T19:46:12.933Z,22.40
2018-03-24T19:48:50.980Z,23.03
2018-03-24T19:51:18.614Z,25.53
2018-03-24T19:53:46.223Z,25.30
2018-03-24T19:56:13.735Z,21.67
2018-03-24T19:58:42.085Z,23.80
2018-03-24T20:01:10.951Z,24.63
2018-03-24T20:03:39.453Z,19.83
2018-03-24T20:06:08.624Z,23.17
2018-03-24T20:08:38.697Z,21.00
2018-03-24T20:11:07.818Z,24.73
2018-03-24T20:13:38.217Z,23.60
2018-03-24T20:16:08.224Z,21.07
2018-03-24T20:18:44.877Z,24.23
2018-03-24T20:21:13.881Z,24.57
2018-03-24T20:23:43.629Z,21.93
2018-03-24T20:26:12.906Z,24.33
2018-03-24T20:28:42.281Z,23.17
2018-03-24T20:31:11.288Z,24.43
2018-03-24T20:33:43.586Z,22.20
2018-03-24T20:36:16.550Z,20.73
2018-03-24T20:38:44.183Z,22.93
2018-03-24T20:41:13.386Z,20.93
2018-03-24T20:43:42.093Z,23.60
2018-03-24T20:46:11.410Z,22.17
2018-03-24T20:48:40.409Z,23.00
2018-03-24T20:51:09.529Z,21.50
2018-03-24T20:53:49.355Z,24.37
2018-03-24T20:56:17.639Z,22.10
2018-03-24T20:58:45.152Z,24.93
2018-03-24T21:01:12.894Z,23.67
2018-03-24T21:03:41.773Z,20.03
2018-03-24T21:06:20.388Z,26.00
2018-03-24T21:08:47.926Z,22.77
2018-03-24T21:11:15.485Z,23.50
2018-03-24T21:13:43.770Z,25.87
2018-03-24T21:16:12.121Z,26.30
2018-03-24T21:18:41.877Z,20.40
2018-03-24T21:21:11.414Z,20.77
2018-03-24T21:23:39.329Z,27.30
2018-03-24T21:26:18.752Z,23.27
2018-03-24T21:28:46.251Z,20.20
2018-03-24T21:31:13.771Z,23.77
2018-03-24T21:33:42.186Z,25.50
2018-03-24T21:36:09.793Z,24.23
2018-03-24T21:38:38.461Z,25.13
2018-03-24T21:41:07.543Z,28.33
2018-03-24T21:43:47.157Z,22.17
2018-03-24T21:46:14.674Z,26.03
2018-03-24T21:48:42.942Z,22.40
2018-03-24T21:51:10.546Z,20.57
2018-03-24T21:53:38.171Z,26.90
2018-03-24T21:56:06.722Z,26.17
2018-03-24T21:58:35.535Z,28.13
2018-03-24T22:01:05.577Z,22.90
2018-03-24T22:03:32.119Z,31.90
2018-03-24T22:06:00.492Z,20.73
2018-03-24T22:08:28.994Z,28.20
2018-03-24T22:10:56.749Z,24.73
2018-03-24T22:13:24.464Z,28.33
2018-03-24T22:15:52.124Z,26.17
2018-03-24T22:18:19.648Z,24.60
2018-03-24T22:20:47.154Z,24.73
2018-03-24T22:23:14.671Z,26.30
2018-03-24T22:25:43.118Z,31.63
2018-03-24T22:28:11.755Z,32.13
2018-03-24T22:30:40.462Z,22.53
2018-03-24T22:33:09.036Z,24.63
2018-03-24T22:35:38.803Z,25.90
2018-03-24T22:38:09.453Z,26.30
2018-03-24T22:40:38.987Z,28.13
2018-03-24T22:43:10.376Z,24.57
2018-03-24T22:45:40.345Z,23.53
2018-03-24T22:48:10.730Z,28.70
2018-03-24T22:50:41.769Z,28.90
2018-03-24T22:53:13.006Z,25.67
2018-03-24T22:55:52.350Z,23.60
2018-03-24T22:58:19.850Z,21.40
2018-03-24T23:00:48.137Z,22.67
2018-03-24T23:03:16.403Z,24.83
2018-03-24T23:05:44.179Z,25.10
2018-03-24T23:08:13.418Z,26.67
2018-03-24T23:10:52.765Z,24.73
2018-03-24T23:13:21.030Z,20.70
2018-03-24T23:15:48.554Z,24.73
2018-03-24T23:18:16.049Z,29.37
2018-03-24T23:20:45.089Z,30.63
2018-03-24T23:23:14.361Z,27.30
2018-03-24T23:25:45.094Z,25.00
2018-03-24T23:28:15.189Z,24.00
2018-03-24T23:30:44.124Z,24.27
2018-03-24T23:33:16.046Z,25.10
2018-03-24T23:35:45.308Z,30.97
2018-03-24T23:38:14.207Z,28.10
2018-03-24T23:40:45.005Z,24.77
2018-03-24T23:43:15.197Z,28.33
2018-03-24T23:45:45.145Z,28.87
2018-03-24T23:48:15.130Z,28.17
2018-03-24T23:50:45.335Z,27.23
2018-03-24T23:53:15.286Z,24.80
2018-03-24T23:55:44.954Z,22.70
2018-03-24T23:58:13.238Z,24.10
